Time;durP1;ratioP1;P1;durP2;ratioP2;P2;SDS_P1;SDS_P2;PMS_P1;PMS_P2;Temp;Humidity;BMP_temperature;BMP_pressure;BME280_temperature;BME280_humidity;BME280_pressure;Samples;Min_cycle;Max_cycle;Signal;HPM_P1;HPM_P2
2022/11/11 00:01:31;;;;;;;9.53;4.13;;;11.00;99.90;;;;;;5047100;28;20228;-72
2022/11/11 00:03:56;;;;;;;7.20;3.30;;;10.90;99.90;;;;;;5044919;28;20216;-75
2022/11/11 00:06:22;;;;;;;12.80;4.00;;;10.90;99.90;;;;;;5044545;28;20184;-76
2022/11/11 00:08:48;;;;;;;12.23;4.07;;;10.90;99.90;;;;;;5049995;28;20175;-74
2022/11/11 00:11:15;;;;;;;11.87;3.03;;;10.80;99.90;;;;;;5027985;28;20211;-73
2022/11/11 00:13:42;;;;;;;11.13;2.80;;;10.90;99.90;;;;;;5030445;28;20931;-76
2022/11/11 00:16:09;;;;;;;11.70;3.60;;;10.80;99.90;;;;;;5047856;28;20214;-72
2022/11/11 00:27:04;;;;;;;13.53;3.27;;;10.70;99.90;;;;;;5041175;28;20211;-74
2022/11/11 00:29:30;;;;;;;8.67;3.77;;;10.70;99.90;;;;;;5031966;28;20204;-74
2022/11/11 00:37:42;;;;;;;7.60;2.90;;;10.70;99.90;;;;;;5042800;28;20262;-73
2022/11/11 00:40:09;;;;;;;13.93;3.67;;;10.70;99.90;;;;;;5041938;28;20295;-74
2022/11/11 00:42:35;;;;;;;10.97;3.40;;;10.70;99.90;;;;;;5045887;28;20704;-74
2022/11/11 00:45:00;;;;;;;8.03;3.10;;;10.60;99.90;;;;;;5047934;28;20294;-73
2022/11/11 00:52:57;;;;;;;11.37;3.30;;;10.60;99.90;;;;;;5049162;28;20265;-76
2022/11/11 00:55:23;;;;;;;10.07;3.27;;;10.60;99.90;;;;;;5045672;28;20247;-74
2022/11/11 00:57:48;;;;;;;10.03;3.80;;;10.50;99.90;;;;;;5029230;28;20649;-73
2022/11/11 01:00:14;;;;;;;10.37;3.00;;;10.40;99.90;;;;;;5042835;28;20179;-72
2022/11/11 01:02:40;;;;;;;9.03;3.53;;;10.50;99.90;;;;;;5049637;28;20192;-74
2022/11/11 01:05:06;;;;;;;12.07;4.10;;;10.50;99.90;;;;;;5043862;28;20307;-71
2022/11/11 01:07:31;;;;;;;9.20;3.60;;;10.50;99.90;;;;;;5043119;28;20215;-72
2022/11/11 01:09:57;;;;;;;9.73;3.53;;;10.50;99.90;;;;;;5061245;23;20314;-75
2022/11/11 01:12:23;;;;;;;11.30;3.30;;;10.50;99.90;;;;;;5031445;28;20187;-74
2022/11/11 01:14:48;;;;;;;8.60;3.33;;;10.40;99.90;;;;;;5044121;28;20233;-76
2022/11/11 01:17:14;;;;;;;6.03;2.93;;;10.40;99.90;;;;;;5038420;28;20212;-73
2022/11/11 01:19:40;;;;;;;7.17;3.60;;;10.30;99.90;;;;;;5044321;28;20215;-74
2022/11/11 01:22:05;;;;;;;9.70;3.40;;;10.30;99.90;;;;;;5027812;28;20239;-71
2022/11/11 01:24:31;;;;;;;11.77;3.63;;;10.30;99.90;;;;;;5046859;28;20207;-74
2022/11/11 01:26:56;;;;;;;10.77;3.60;;;10.40;99.90;;;;;;5048031;28;20688;-73
2022/11/11 01:29:22;;;;;;;10.47;3.23;;;10.40;99.90;;;;;;5043810;28;20302;-76
2022/11/11 01:31:48;;;;;;;10.43;3.27;;;10.40;99.90;;;;;;5031408;28;20207;-77
2022/11/11 01:34:13;;;;;;;16.70;6.37;;;10.30;99.90;;;;;;5032414;28;20299;-76
2022/11/11 01:36:39;;;;;;;9.60;3.90;;;10.30;99.90;;;;;;5030046;28;20310;-76
2022/11/11 01:39:04;;;;;;;8.40;3.43;;;10.30;99.90;;;;;;5043610;28;20191;-72
2022/11/11 01:41:34;;;;;;;8.87;3.40;;;10.30;99.90;;;;;;5043132;28;20204;-72
2022/11/11 01:44:17;;;;;;;7.87;3.13;;;10.30;99.90;;;;;;5026905;28;20215;-74
2022/11/11 01:46:48;;;;;;;10.13;3.83;;;10.30;99.90;;;;;;5042960;28;20207;-77
2022/11/11 01:49:32;;;;;;;10.97;3.60;;;10.40;99.90;;;;;;5042023;28;20208;-72
2022/11/11 01:52:22;;;;;;;10.87;3.27;;;10.30;99.90;;;;;;5044029;28;20212;-76
2022/11/11 01:55:02;;;;;;;7.77;4.07;;;10.40;99.90;;;;;;5046449;28;20234;-74
2022/11/11 01:57:58;;;;;;;9.07;3.33;;;10.30;99.90;;;;;;5028987;28;20550;-77
2022/11/11 02:00:23;;;;;;;11.43;3.67;;;10.30;99.90;;;;;;5037403;28;20222;-76
2022/11/11 02:02:58;;;;;;;11.40;4.13;;;10.30;99.90;;;;;;5033433;28;20266;-75
2022/11/11 02:05:44;;;;;;;6.77;3.63;;;10.30;99.90;;;;;;5024482;28;20238;-75
2022/11/11 02:08:14;;;;;;;8.00;3.50;;;10.40;99.90;;;;;;5042733;28;20302;-74
2022/11/11 02:10:44;;;;;;;6.53;3.23;;;10.40;99.90;;;;;;5046906;28;20277;-76
2022/11/11 02:15:59;;;;;;;11.93;4.10;;;10.40;99.90;;;;;;5046878;28;20281;-76
2022/11/11 02:18:26;;;;;;;11.30;3.33;;;10.30;99.90;;;;;;5046008;28;20654;-73
2022/11/11 02:20:52;;;;;;;6.67;3.03;;;10.30;99.90;;;;;;5038886;28;20223;-75
2022/11/11 02:23:33;;;;;;;12.10;3.60;;;10.30;99.90;;;;;;5030060;28;20693;-76
2022/11/11 02:26:01;;;;;;;11.77;4.10;;;10.20;99.90;;;;;;5042566;28;20240;-73
2022/11/11 02:28:27;;;;;;;7.37;3.90;;;10.20;99.90;;;;;;5032197;28;20265;-74
2022/11/11 02:30:52;;;;;;;10.07;3.50;;;10.30;99.90;;;;;;5045350;28;20211;-74
2022/11/11 02:33:18;;;;;;;21.97;4.17;;;10.30;99.90;;;;;;5047391;28;20202;-76
2022/11/11 02:35:56;;;;;;;10.40;3.87;;;10.30;99.90;;;;;;5042632;28;20175;-74
2022/11/11 02:38:24;;;;;;;11.13;3.80;;;10.30;99.90;;;;;;5024686;28;20219;-75
2022/11/11 02:43:33;;;;;;;11.67;3.53;;;10.40;99.90;;;;;;5037393;28;20210;-75
2022/11/11 02:46:01;;;;;;;8.87;3.27;;;10.30;99.90;;;;;;5045721;28;20208;-77
2022/11/11 02:48:27;;;;;;;6.97;3.03;;;10.30;99.90;;;;;;5021335;28;20678;-75
2022/11/11 02:50:53;;;;;;;8.20;2.93;;;10.30;99.90;;;;;;5046979;28;20199;-74
2022/11/11 02:53:20;;;;;;;9.50;3.83;;;10.20;99.90;;;;;;5046716;28;20243;-73
2022/11/11 02:55:45;;;;;;;10.87;3.63;;;10.30;99.90;;;;;;5043298;28;20212;-77
2022/11/11 02:58:12;;;;;;;8.57;3.37;;;10.30;99.90;;;;;;5046037;28;20765;-75
2022/11/11 03:00:37;;;;;;;8.20;3.40;;;10.30;99.90;;;;;;5025590;28;20215;-73
2022/11/11 03:03:03;;;;;;;12.17;4.20;;;10.30;99.90;;;;;;5042636;28;20180;-74
2022/11/11 03:05:29;;;;;;;10.27;3.70;;;10.30;99.90;;;;;;5046021;28;20243;-72
2022/11/11 03:07:54;;;;;;;6.07;3.23;;;10.30;99.90;;;;;;5029523;28;20587;-73
2022/11/11 03:10:20;;;;;;;7.70;3.07;;;10.30;99.90;;;;;;5047081;28;20276;-73
2022/11/11 03:12:45;;;;;;;7.33;3.33;;;10.30;99.90;;;;;;5043230;28;20218;-73
2022/11/11 03:15:11;;;;;;;10.90;3.20;;;10.30;99.90;;;;;;5046307;28;20179;-73
2022/11/11 03:17:40;;;;;;;11.20;3.40;;;10.20;99.90;;;;;;5049398;28;20196;-73
2022/11/11 03:23:09;;;;;;;7.30;3.67;;;10.20;99.90;;;;;;5046179;28;20222;-73
2022/11/11 03:25:46;;;;;;;7.43;3.17;;;10.10;99.90;;;;;;5035825;28;20239;-74
2022/11/11 03:28:19;;;;;;;8.60;3.23;;;10.10;99.90;;;;;;5049835;28;20216;-73
2022/11/11 03:30:47;;;;;;;5.27;3.00;;;10.10;99.90;;;;;;5042152;28;20306;-73
2022/11/11 03:33:14;;;;;;;9.80;3.27;;;10.10;99.90;;;;;;5052305;28;20254;-73
2022/11/11 03:35:41;;;;;;;11.10;3.30;;;10.10;99.90;;;;;;5048866;28;20180;-73
2022/11/11 03:38:23;;;;;;;8.00;3.37;;;10.00;99.90;;;;;;5027666;28;20652;-72
2022/11/11 03:40:52;;;;;;;10.07;3.40;;;10.00;99.90;;;;;;5046847;28;20215;-73
2022/11/11 03:43:19;;;;;;;9.00;3.90;;;9.90;99.90;;;;;;5045620;28;20207;-73
2022/11/11 03:45:45;;;;;;;7.93;4.10;;;10.00;99.90;;;;;;5044513;28;20214;-73
2022/11/11 03:48:11;;;;;;;12.47;3.67;;;10.00;99.90;;;;;;5046612;28;20189;-72
2022/11/11 03:50:37;;;;;;;13.23;4.70;;;10.00;99.90;;;;;;5052496;28;20637;-73
2022/11/11 03:53:05;;;;;;;7.50;3.20;;;9.90;99.90;;;;;;5049318;28;20208;-74
2022/11/11 03:55:30;;;;;;;6.30;3.30;;;10.00;99.90;;;;;;5048379;28;20247;-73
2022/11/11 03:57:56;;;;;;;8.33;3.80;;;10.00;99.90;;;;;;5047203;28;20250;-73
2022/11/11 04:00:26;;;;;;;8.13;3.13;;;10.00;99.90;;;;;;5046616;28;20204;-73
2022/11/11 04:11:27;;;;;;;9.10;3.30;;;9.70;99.90;;;;;;5038830;28;20223;-72
2022/11/11 04:16:39;;;;;;;11.00;4.40;;;9.80;99.90;;;;;;5037430;28;20300;-71
2022/11/11 04:21:49;;;;;;;8.17;3.00;;;9.80;99.90;;;;;;5047920;28;20257;-72
2022/11/11 04:27:07;;;;;;;9.73;3.40;;;9.80;99.90;;;;;;5047655;28;20186;-72
2022/11/11 04:29:33;;;;;;;11.93;3.50;;;9.80;99.90;;;;;;5051826;28;20208;-72
2022/11/11 04:34:48;;;;;;;7.47;4.07;;;9.80;99.90;;;;;;5059237;28;20218;-73
2022/11/11 04:37:14;;;;;;;12.47;3.77;;;9.80;99.90;;;;;;5066145;28;20212;-71
2022/11/11 04:42:25;;;;;;;6.53;3.17;;;9.80;99.90;;;;;;5063774;28;20182;-72
2022/11/11 04:47:36;;;;;;;11.33;3.63;;;9.80;99.90;;;;;;5044791;28;20242;-71
2022/11/11 04:50:03;;;;;;;7.00;3.33;;;9.70;99.90;;;;;;5042034;28;20244;-70
2022/11/11 04:52:30;;;;;;;10.20;3.60;;;9.80;99.90;;;;;;5044874;28;20216;-72
2022/11/11 04:57:46;;;;;;;6.97;3.63;;;9.80;99.90;;;;;;5043861;28;20600;-73
2022/11/11 05:00:17;;;;;;;5.20;2.93;;;9.80;99.90;;;;;;5046195;28;20234;-72
2022/11/11 05:05:28;;;;;;;7.97;3.60;;;9.80;99.90;;;;;;5038932;28;20223;-72
2022/11/11 05:10:38;;;;;;;11.97;3.40;;;9.90;99.90;;;;;;5038833;28;21180;-73
2022/11/11 05:21:25;;;;;;;10.47;3.53;;;9.90;99.90;;;;;;5047735;28;20699;-73
2022/11/11 05:26:35;;;;;;;9.37;3.33;;;9.80;99.90;;;;;;5044705;28;20234;-73
2022/11/11 05:29:02;;;;;;;10.20;3.73;;;9.80;99.90;;;;;;5023928;28;20678;-74
2022/11/11 05:31:28;;;;;;;8.50;3.37;;;9.90;99.90;;;;;;5045759;28;20224;-73
2022/11/11 05:33:54;;;;;;;8.00;3.10;;;9.90;99.90;;;;;;5038769;28;20238;-73
2022/11/11 05:36:20;;;;;;;5.23;2.90;;;9.90;99.90;;;;;;5043543;28;20187;-72
2022/11/11 05:38:46;;;;;;;9.60;4.33;;;9.90;99.90;;;;;;5050520;28;20208;-71
2022/11/11 05:41:11;;;;;;;9.43;3.67;;;9.90;99.90;;;;;;5026603;28;20216;-72
2022/11/11 05:43:37;;;;;;;7.50;3.57;;;9.90;99.90;;;;;;5041304;28;20204;-73
2022/11/11 05:46:03;;;;;;;7.07;2.90;;;9.90;99.90;;;;;;5040959;28;20239;-73
2022/11/11 05:48:31;;;;;;;8.77;3.40;;;10.00;99.90;;;;;;5033387;28;20216;-73
2022/11/11 05:51:00;;;;;;;10.90;3.33;;;9.90;99.90;;;;;;5046319;28;20206;-72
2022/11/11 05:53:27;;;;;;;13.37;3.50;;;9.90;99.90;;;;;;5041599;28;20722;-73
2022/11/11 05:55:53;;;;;;;8.40;3.30;;;10.00;99.90;;;;;;5044290;28;20215;-72
2022/11/11 05:58:19;;;;;;;8.30;3.73;;;10.00;99.90;;;;;;5033166;28;20227;-73
2022/11/11 06:00:45;;;;;;;7.87;3.40;;;10.00;99.90;;;;;;5038741;28;20216;-73
2022/11/11 06:03:11;;;;;;;11.97;3.63;;;10.00;99.90;;;;;;5029501;28;20196;-72
2022/11/11 06:05:36;;;;;;;6.93;2.97;;;10.00;99.90;;;;;;5030026;28;20701;-74
2022/11/11 06:08:03;;;;;;;10.57;3.53;;;10.00;99.90;;;;;;5044942;28;20931;-73
2022/11/11 06:10:32;;;;;;;11.03;3.37;;;10.00;99.90;;;;;;5039546;28;20608;-73
2022/11/11 06:13:01;;;;;;;9.63;2.97;;;10.00;99.90;;;;;;5041537;28;20219;-73
2022/11/11 06:15:37;;;;;;;11.03;4.00;;;9.90;99.90;;;;;;5045567;28;20237;-73
2022/11/11 06:18:04;;;;;;;7.80;3.50;;;10.00;99.90;;;;;;5043064;28;20230;-72
2022/11/11 06:20:30;;;;;;;9.53;3.50;;;9.80;99.90;;;;;;5030093;28;20219;-73
2022/11/11 06:22:56;;;;;;;7.50;3.33;;;9.90;99.90;;;;;;5022876;28;20207;-74
2022/11/11 06:28:17;;;;;;;8.37;3.03;;;9.90;99.90;;;;;;5048247;28;20693;-74
2022/11/11 06:30:44;;;;;;;10.43;3.43;;;9.90;99.90;;;;;;5032526;28;20640;-73
2022/11/11 06:33:10;;;;;;;8.77;3.00;;;9.90;99.90;;;;;;5029398;28;20262;-73
2022/11/11 06:35:37;;;;;;;10.53;3.33;;;9.80;99.90;;;;;;5045653;28;20186;-73
2022/11/11 06:38:04;;;;;;;10.57;3.70;;;9.80;99.90;;;;;;5041014;28;20220;-72
2022/11/11 06:40:30;;;;;;;7.30;3.10;;;9.80;99.90;;;;;;5048913;28;20298;-72
2022/11/11 06:42:57;;;;;;;11.13;3.40;;;9.80;99.90;;;;;;5042148;28;20212;-73
2022/11/11 06:45:28;;;;;;;6.90;2.77;;;9.90;99.90;;;;;;5045075;28;20220;-74
2022/11/11 06:47:54;;;;;;;8.30;3.40;;;9.90;99.90;;;;;;5044279;28;20257;-74
2022/11/11 06:50:20;;;;;;;7.77;3.27;;;9.90;99.90;;;;;;5049101;28;20655;-73
2022/11/11 06:52:46;;;;;;;9.13;3.77;;;10.00;99.90;;;;;;5041802;28;20212;-73
2022/11/11 06:55:12;;;;;;;6.60;2.90;;;10.00;99.90;;;;;;5048262;28;20290;-73
2022/11/11 06:57:38;;;;;;;10.00;3.70;;;10.00;99.90;;;;;;5023673;28;20272;-74
2022/11/11 07:00:05;;;;;;;9.93;3.23;;;10.00;99.90;;;;;;5046368;28;20206;-73
2022/11/11 07:02:30;;;;;;;6.17;2.77;;;10.00;99.90;;;;;;5045586;28;20239;-74
2022/11/11 07:04:56;;;;;;;10.13;3.90;;;10.10;99.90;;;;;;5041598;28;20239;-74
2022/11/11 07:07:21;;;;;;;8.53;3.27;;;10.10;99.90;;;;;;5029488;28;20882;-73
2022/11/11 07:09:47;;;;;;;9.17;3.27;;;10.10;99.90;;;;;;5040568;28;20215;-72
2022/11/11 07:12:13;;;;;;;7.57;3.73;;;10.10;99.90;;;;;;5056675;23;20313;-70
2022/11/11 07:14:39;;;;;;;7.07;3.27;;;10.10;99.90;;;;;;5046226;28;20176;-70
2022/11/11 07:17:04;;;;;;;8.63;3.87;;;10.20;99.90;;;;;;5042059;28;20216;-69
2022/11/11 07:19:30;;;;;;;10.93;3.37;;;10.20;99.90;;;;;;5037947;28;20698;-70
2022/11/11 07:21:56;;;;;;;12.87;3.70;;;10.10;99.90;;;;;;5044951;28;20243;-70
2022/11/11 07:24:21;;;;;;;10.43;3.87;;;10.20;99.90;;;;;;5045151;28;20187;-71
2022/11/11 07:26:47;;;;;;;8.07;3.23;;;10.10;99.90;;;;;;5051775;28;20176;-69
2022/11/11 07:29:14;;;;;;;7.13;3.27;;;10.20;99.90;;;;;;5048060;28;20293;-70
2022/11/11 07:31:40;;;;;;;10.37;2.90;;;10.20;99.90;;;;;;5040724;28;20218;-70
2022/11/11 07:34:06;;;;;;;7.93;3.40;;;10.30;99.90;;;;;;5054082;28;20212;-67
2022/11/11 07:36:32;;;;;;;9.10;3.80;;;10.40;99.90;;;;;;5047270;28;20226;-69
2022/11/11 07:38:58;;;;;;;6.97;3.13;;;10.30;99.90;;;;;;5047708;28;20203;-70
2022/11/11 07:41:24;;;;;;;8.30;3.60;;;10.30;99.90;;;;;;5033217;28;20216;-70
2022/11/11 07:43:49;;;;;;;11.60;3.77;;;10.40;99.90;;;;;;5043756;28;20727;-71
2022/11/11 07:46:15;;;;;;;9.97;3.63;;;10.40;99.90;;;;;;5052380;28;20210;-71
2022/11/11 07:48:41;;;;;;;8.87;3.53;;;10.50;99.90;;;;;;5049717;28;20207;-70
2022/11/11 07:51:06;;;;;;;13.27;3.87;;;10.50;99.90;;;;;;5043655;28;20204;-69
2022/11/11 07:53:32;;;;;;;6.17;3.40;;;10.50;99.90;;;;;;5048411;28;20303;-73
2022/11/11 07:55:57;;;;;;;8.87;3.80;;;10.60;99.90;;;;;;5027316;28;20213;-70
2022/11/11 07:58:23;;;;;;;7.73;3.27;;;10.60;99.90;;;;;;5046866;28;20627;-70
2022/11/11 08:00:49;;;;;;;6.33;2.80;;;10.70;99.90;;;;;;5053053;28;20716;-69
2022/11/11 08:03:14;;;;;;;12.03;4.27;;;10.80;99.90;;;;;;5052619;28;20174;-70
2022/11/11 08:05:40;;;;;;;8.27;3.50;;;10.70;99.90;;;;;;5051267;28;20187;-70
2022/11/11 08:08:07;;;;;;;6.53;3.10;;;10.90;99.90;;;;;;5056926;28;20232;-69
2022/11/11 08:10:34;;;;;;;8.73;3.70;;;10.90;99.90;;;;;;5027911;28;20221;-71
2022/11/11 08:15:44;;;;;;;7.57;3.33;;;11.10;99.90;;;;;;5049108;28;20214;-70
2022/11/11 08:18:10;;;;;;;9.97;3.60;;;11.10;99.90;;;;;;5047146;28;20211;-70
2022/11/11 08:20:36;;;;;;;8.17;3.37;;;11.20;99.90;;;;;;5028925;28;20214;-71
2022/11/11 08:23:03;;;;;;;8.70;3.60;;;11.30;99.90;;;;;;5049175;28;20219;-71
2022/11/11 08:25:30;;;;;;;7.47;3.40;;;11.40;99.90;;;;;;5045333;28;20219;-70
2022/11/11 08:28:04;;;;;;;12.07;3.47;;;11.50;99.90;;;;;;5053632;28;20639;-70
2022/11/11 08:30:31;;;;;;;7.63;2.97;;;11.60;99.90;;;;;;5050419;28;20211;-71
2022/11/11 08:33:02;;;;;;;6.43;3.43;;;11.60;99.90;;;;;;5050320;28;20215;-71
2022/11/11 08:35:28;;;;;;;6.03;3.10;;;11.80;99.90;;;;;;5034782;28;20226;-69
2022/11/11 08:37:54;;;;;;;10.80;3.50;;;11.90;99.90;;;;;;5052755;28;20277;-69
2022/11/11 08:40:20;;;;;;;8.57;3.70;;;12.00;99.90;;;;;;5054253;28;20219;-69
2022/11/11 08:42:46;;;;;;;8.50;3.10;;;12.10;99.90;;;;;;5047775;28;20212;-71
2022/11/11 08:45:12;;;;;;;5.87;3.10;;;12.10;99.90;;;;;;5049855;28;20356;-69
2022/11/11 08:47:38;;;;;;;7.67;3.20;;;12.30;99.90;;;;;;5054248;28;20176;-69
2022/11/11 08:50:06;;;;;;;6.77;3.03;;;12.40;99.90;;;;;;5024660;28;20689;-69
2022/11/11 08:52:31;;;;;;;9.60;3.27;;;12.60;99.90;;;;;;5045842;28;20215;-69
2022/11/11 08:54:59;;;;;;;7.70;3.00;;;12.80;99.90;;;;;;5056508;28;21029;-69
2022/11/11 08:57:25;;;;;;;5.65;2.95;;;13.00;99.90;;;;;;5033701;28;20215;-69
2022/11/11 08:59:50;;;;;;;6.65;2.80;;;13.10;99.90;;;;;;5048932;28;20190;-70
2022/11/11 09:02:16;;;;;;;9.95;3.35;;;13.10;99.90;;;;;;5052364;28;20215;-70
2022/11/11 09:04:42;;;;;;;5.63;2.70;;;13.10;99.90;;;;;;5043835;28;20270;-70
2022/11/11 09:07:09;;;;;;;8.73;3.17;;;13.00;99.90;;;;;;5048011;28;20208;-69
2022/11/11 09:09:35;;;;;;;8.00;2.75;;;12.90;99.90;;;;;;5052710;28;20445;-71
2022/11/11 09:12:00;;;;;;;10.77;3.08;;;13.00;99.90;;;;;;5045403;28;20226;-69
2022/11/11 09:14:26;;;;;;;4.32;2.63;;;13.00;99.90;;;;;;5051754;28;20265;-69
2022/11/11 09:16:52;;;;;;;6.80;3.28;;;13.00;99.90;;;;;;5051669;28;20215;-71
2022/11/11 09:19:17;;;;;;;6.93;3.30;;;13.10;99.90;;;;;;5045149;28;20242;-70
2022/11/11 09:21:43;;;;;;;6.40;3.13;;;13.10;99.90;;;;;;5054186;28;20231;-70
2022/11/11 09:24:08;;;;;;;10.60;2.90;;;13.30;99.90;;;;;;5050434;28;20181;-70
2022/11/11 09:26:34;;;;;;;8.27;3.60;;;13.40;99.90;;;;;;5033684;28;20180;-71
2022/11/11 09:29:00;;;;;;;8.15;3.38;;;13.50;99.90;;;;;;5035475;28;20587;-71
2022/11/11 09:31:25;;;;;;;7.95;3.13;;;13.50;99.90;;;;;;5050358;28;20588;-71
2022/11/11 09:33:51;;;;;;;7.43;3.17;;;13.60;99.90;;;;;;5049528;28;20204;-71
2022/11/11 09:36:17;;;;;;;6.53;2.80;;;13.60;99.90;;;;;;5053688;28;20180;-72
2022/11/11 09:38:43;;;;;;;8.25;2.75;;;13.50;99.90;;;;;;5046013;28;20203;-71
2022/11/11 09:41:16;;;;;;;90.40;46.60;;;13.40;99.90;;;;;;5035300;28;20212;-72
2022/11/11 09:44:04;;;;;;;20.17;10.93;;;13.40;99.90;;;;;;5049662;28;20702;-71
2022/11/11 09:46:57;;;;;;;17.13;7.82;;;13.30;99.90;;;;;;5049434;28;20223;-71
2022/11/11 09:49:45;;;;;;;10.85;3.50;;;13.40;99.90;;;;;;5048806;28;20230;-71
2022/11/11 09:52:21;;;;;;;6.78;3.13;;;13.30;99.90;;;;;;5050495;28;20226;-71
2022/11/11 09:54:56;;;;;;;10.13;3.10;;;13.40;99.90;;;;;;5052801;28;20214;-71
2022/11/11 09:57:48;;;;;;;9.63;3.08;;;13.20;99.90;;;;;;5048428;28;20626;-73
2022/11/11 10:00:18;;;;;;;5.22;2.88;;;13.10;99.90;;;;;;5050146;28;20164;-73
2022/11/11 10:03:12;;;;;;;7.93;3.67;;;13.10;99.90;;;;;;5049283;28;20207;-73
2022/11/11 10:05:44;;;;;;;6.90;3.40;;;13.20;99.90;;;;;;5047243;28;20205;-73
2022/11/11 10:08:36;;;;;;;6.70;2.90;;;13.30;99.90;;;;;;5051527;28;20228;-73
2022/11/11 10:11:04;;;;;;;5.65;2.67;;;13.30;99.90;;;;;;5048880;28;20207;-73
2022/11/11 10:13:35;;;;;;;4.97;2.42;;;13.30;99.90;;;;;;5043232;28;20218;-72
2022/11/11 10:16:31;;;;;;;5.28;2.65;;;13.40;99.90;;;;;;5034630;28;20223;-72
2022/11/11 10:18:57;;;;;;;10.13;3.83;;;13.50;99.90;;;;;;5049393;28;20234;-73
2022/11/11 10:21:35;;;;;;;8.75;2.78;;;13.50;99.90;;;;;;5052660;28;20679;-73
2022/11/11 10:24:05;;;;;;;6.80;2.58;;;13.50;99.90;;;;;;5051867;28;20186;-72
2022/11/11 10:26:43;;;;;;;6.78;3.03;;;13.60;99.90;;;;;;5025839;28;20212;-72
2022/11/11 10:29:18;;;;;;;7.47;3.08;;;13.70;99.90;;;;;;5056220;28;20226;-73
2022/11/11 10:32:10;;;;;;;9.45;2.47;;;13.70;99.90;;;;;;5026864;28;20249;-72
2022/11/11 10:34:36;;;;;;;5.93;2.47;;;13.70;99.90;;;;;;5046197;28;20260;-74
2022/11/11 10:37:02;;;;;;;5.60;2.42;;;13.70;99.90;;;;;;5052211;28;20235;-72
2022/11/11 10:39:37;;;;;;;6.47;2.15;;;13.80;99.90;;;;;;5045912;28;20223;-73
2022/11/11 10:42:03;;;;;;;4.10;2.60;;;13.90;99.90;;;;;;5048615;28;20219;-73
2022/11/11 10:44:33;;;;;;;8.65;3.38;;;13.90;99.90;;;;;;5032389;28;20592;-73
2022/11/11 10:47:15;;;;;;;5.78;2.75;;;14.10;99.90;;;;;;5042828;28;20637;-72
2022/11/11 10:49:51;;;;;;;6.70;3.25;;;14.10;99.90;;;;;;5054074;28;20724;-73
2022/11/11 10:52:24;;;;;;;6.15;2.60;;;14.10;99.90;;;;;;5049146;28;20213;-71
2022/11/11 10:54:59;;;;;;;5.63;2.97;;;14.10;99.90;;;;;;5045949;28;20199;-74
2022/11/11 10:57:35;;;;;;;7.55;2.60;;;14.20;99.90;;;;;;5031800;28;20722;-71
2022/11/11 11:00:11;;;;;;;4.50;2.33;;;14.20;99.90;;;;;;5028909;28;20669;-72
2022/11/11 11:02:47;;;;;;;8.00;2.65;;;14.30;99.90;;;;;;5031080;28;20662;-72
2022/11/11 11:05:24;;;;;;;7.97;2.47;;;14.30;99.90;;;;;;5044617;28;20290;-72
2022/11/11 11:07:55;;;;;;;6.55;2.75;;;14.30;99.90;;;;;;5022042;28;20208;-72
2022/11/11 11:10:45;;;;;;;8.13;2.70;;;14.30;99.90;;;;;;5049186;28;20284;-73
2022/11/11 11:13:35;;;;;;;5.93;2.50;;;14.30;99.90;;;;;;5035489;28;20216;-72
2022/11/11 11:16:17;;;;;;;7.40;2.10;;;14.30;99.90;;;;;;5044113;28;20266;-71
2022/11/11 11:18:43;;;;;;;9.13;2.47;;;14.30;99.90;;;;;;5046155;28;20227;-71
2022/11/11 11:21:09;;;;;;;6.55;2.58;;;14.40;99.90;;;;;;5048368;28;20210;-71
2022/11/11 11:23:42;;;;;;;4.15;2.20;;;14.40;99.90;;;;;;5036213;28;20176;-71
2022/11/11 11:26:10;;;;;;;6.82;2.97;;;14.50;99.90;;;;;;5047369;28;20275;-71
2022/11/11 11:28:52;;;;;;;7.93;2.80;;;14.50;99.90;;;;;;5046337;28;20215;-71
2022/11/11 11:31:46;;;;;;;9.13;3.47;;;14.50;99.90;;;;;;5044097;28;20204;-71
2022/11/11 11:34:11;;;;;;;5.05;2.33;;;14.50;99.90;;;;;;5049327;28;20262;-71
2022/11/11 11:36:37;;;;;;;8.85;2.95;;;14.40;99.90;;;;;;5056530;28;20212;-70
2022/11/11 11:39:03;;;;;;;4.78;2.35;;;14.40;99.90;;;;;;5054072;28;20239;-71
2022/11/11 11:41:43;;;;;;;6.47;2.03;;;14.40;99.90;;;;;;5036521;28;20230;-71
2022/11/11 11:44:38;;;;;;;6.20;2.60;;;14.40;99.90;;;;;;5055972;28;20592;-71
2022/11/11 11:47:03;;;;;;;6.50;2.63;;;14.40;99.90;;;;;;5036120;28;20200;-71
2022/11/11 11:50:00;;;;;;;4.72;2.38;;;14.40;99.90;;;;;;5055039;28;20261;-70
2022/11/11 11:52:25;;;;;;;4.65;2.08;;;14.40;99.90;;;;;;5046994;28;20644;-71
2022/11/11 11:55:11;;;;;;;6.07;2.47;;;14.30;99.90;;;;;;5043857;28;20208;-71
2022/11/11 11:57:52;;;;;;;5.30;2.58;;;14.30;99.90;;;;;;5029494;28;20708;-71
2022/11/11 12:00:25;;;;;;;6.43;2.40;;;14.30;99.90;;;;;;5048362;28;20190;-72
2022/11/11 12:03:02;;;;;;;4.68;2.22;;;14.20;99.90;;;;;;5048829;28;20199;-72
2022/11/11 12:05:46;;;;;;;3.17;1.55;;;14.20;99.90;;;;;;5051673;28;20216;-72
2022/11/11 12:08:17;;;;;;;8.02;2.35;;;14.30;99.90;;;;;;5049305;28;20322;-72
2022/11/11 12:10:48;;;;;;;6.28;2.17;;;14.20;99.90;;;;;;5040382;28;20204;-70
2022/11/11 12:13:23;;;;;;;3.63;1.67;;;14.20;99.90;;;;;;5049457;28;20212;-72
2022/11/11 12:16:14;;;;;;;7.18;2.67;;;14.20;99.90;;;;;;5052949;28;20207;-72
2022/11/11 12:19:00;;;;;;;2.97;1.80;;;14.20;99.90;;;;;;5050203;28;20220;-71
2022/11/11 12:21:38;;;;;;;7.28;2.20;;;14.10;99.90;;;;;;5048416;28;20211;-71
2022/11/11 12:24:31;;;;;;;4.88;2.10;;;14.20;99.90;;;;;;5038293;28;20188;-70
2022/11/11 12:27:12;;;;;;;2.90;2.10;;;14.20;99.90;;;;;;5031199;28;20255;-72
2022/11/11 12:29:55;;;;;;;3.22;1.70;;;14.20;99.90;;;;;;5050661;28;20721;-72
2022/11/11 12:32:49;;;;;;;6.10;1.95;;;14.20;99.90;;;;;;5050232;28;20598;-71
2022/11/11 12:35:47;;;;;;;5.10;2.00;;;14.20;99.90;;;;;;5051576;28;20215;-73
2022/11/11 12:38:19;;;;;;;5.28;2.40;;;14.20;99.90;;;;;;5053015;28;20219;-75
2022/11/11 12:40:44;;;;;;;6.75;2.22;;;14.30;99.90;;;;;;5052071;28;20218;-71
2022/11/11 12:43:47;;;;;;;3.97;1.88;;;14.40;99.90;;;;;;5030748;28;20204;-72
2022/11/11 12:46:35;;;;;;;4.82;2.25;;;14.30;99.90;;;;;;5051319;28;20218;-70
2022/11/11 12:49:22;;;;;;;5.68;1.90;;;14.40;99.90;;;;;;5048168;28;20201;-73
2022/11/11 12:51:53;;;;;;;4.75;2.78;;;14.40;99.90;;;;;;5048967;28;20211;-72
2022/11/11 12:54:44;;;;;;;3.70;2.00;;;14.40;99.90;;;;;;5046679;28;20263;-72
2022/11/11 12:57:25;;;;;;;6.18;1.77;;;14.40;99.90;;;;;;5051681;28;20168;-72
2022/11/11 13:00:12;;;;;;;3.15;1.70;;;14.40;99.90;;;;;;5047792;28;20251;-72
2022/11/11 13:02:38;;;;;;;5.50;2.00;;;14.40;99.90;;;;;;5050773;28;20207;-72
2022/11/11 13:05:06;;;;;;;3.47;1.80;;;14.40;99.90;;;;;;5055504;28;20200;-72
2022/11/11 13:07:49;;;;;;;2.50;1.40;;;14.30;99.90;;;;;;5048620;28;20212;-72
2022/11/11 13:10:40;;;;;;;2.95;1.50;;;14.30;99.90;;;;;;5053854;28;20633;-72
2022/11/11 13:13:08;;;;;;;6.75;1.80;;;14.30;99.90;;;;;;5033457;28;20222;-72
2022/11/11 13:15:34;;;;;;;5.15;1.83;;;14.30;99.90;;;;;;5047573;28;20207;-72
2022/11/11 13:18:01;;;;;;;10.57;2.00;;;14.30;99.90;;;;;;5043080;28;20206;-75
2022/11/11 13:20:45;;;;;;;4.05;1.90;;;14.30;99.90;;;;;;5027484;28;20594;-74
2022/11/11 13:23:11;;;;;;;4.60;2.15;;;14.30;99.90;;;;;;5046065;28;20203;-74
2022/11/11 13:25:43;;;;;;;7.00;2.00;;;14.30;99.90;;;;;;5031998;28;20207;-73
2022/11/11 13:28:27;;;;;;;2.22;1.77;;;14.20;99.90;;;;;;5048606;28;20200;-74
2022/11/11 13:31:22;;;;;;;3.88;1.90;;;14.20;99.90;;;;;;5033151;28;20714;-75
2022/11/11 13:33:52;;;;;;;4.25;2.28;;;14.30;99.90;;;;;;5049641;28;20207;-72
2022/11/11 13:36:21;;;;;;;5.70;1.90;;;14.30;99.90;;;;;;5039170;28;20172;-74
2022/11/11 13:38:59;;;;;;;3.03;1.55;;;14.30;99.90;;;;;;5028577;28;20204;-76
2022/11/11 13:41:29;;;;;;;5.28;1.90;;;14.20;99.90;;;;;;5046860;28;20234;-74
2022/11/11 13:43:58;;;;;;;3.97;1.90;;;14.10;99.90;;;;;;5048160;28;20222;-73
2022/11/11 13:46:27;;;;;;;5.70;1.85;;;14.00;99.90;;;;;;5051144;28;20225;-76
2022/11/11 13:48:54;;;;;;;4.97;1.88;;;13.90;99.90;;;;;;5042679;28;20204;-75
2022/11/11 13:51:39;;;;;;;6.53;1.90;;;13.90;99.90;;;;;;5051219;28;20263;-75
2022/11/11 13:54:21;;;;;;;5.10;1.98;;;13.80;99.90;;;;;;5022639;28;20272;-72
2022/11/11 13:56:48;;;;;;;4.68;2.30;;;13.80;99.90;;;;;;5050745;28;20207;-74
2022/11/11 13:59:24;;;;;;;3.80;2.50;;;13.70;99.90;;;;;;5058979;28;20294;-74
2022/11/11 14:02:13;;;;;;;4.47;1.80;;;13.70;99.90;;;;;;5044152;28;20220;-74
2022/11/11 14:05:14;;;;;;;4.00;1.67;;;13.70;99.90;;;;;;5033580;28;20219;-73
2022/11/11 14:07:48;;;;;;;6.43;2.20;;;13.60;99.90;;;;;;5013821;28;20681;-75
2022/11/11 14:10:16;;;;;;;5.13;2.20;;;13.60;99.90;;;;;;5043652;28;20206;-79
2022/11/11 14:12:43;;;;;;;6.88;2.03;;;13.60;99.90;;;;;;5052970;28;20211;-78
2022/11/11 14:15:34;;;;;;;5.07;2.08;;;13.50;99.90;;;;;;5028335;28;20181;-75
2022/11/11 14:18:01;;;;;;;4.13;2.10;;;13.50;99.90;;;;;;5018953;28;20243;-77
2022/11/11 14:20:37;;;;;;;3.83;1.77;;;13.50;99.90;;;;;;5051564;28;20227;-75
2022/11/11 14:23:41;;;;;;;5.50;1.73;;;13.40;99.90;;;;;;5043814;28;20702;-75